»·PEaware :: UAL584 KLAS-KLAX

UAL584 :: KLAS-KLAX

FLIGHT INFORMATION

Flight Status: Arrived
Operator:
United Airlines
More flights by this operator :: More flights under this callsign
Pilot: Saso K. (7898)
Aircraft: BOEING 737-300
(B733)
More flights by this aircraft type
Origin: KLAS McCarran Intl
United States
Destination: KLAX Los Angeles Intl
United States
More flights between these airports :: More routes between these airports
Route: +BOACH6 HEC RIIVR3
File this flight plan on PilotEdge
Remarks:
Altitude:
(Current/Filed)
28,000ft
Speed:
(Current/Filed)
423kts
Departed: 21-Feb-17 02:01 PM
Arrived: 21-Feb-17 02:51 PM
Distance/Time
Traveled:
205nm/0:49
Distance/Time
To Go:
Arrived

Flight Plot

Page will automatically refresh every two minutes.


Map Options




Map Legend


Flown Route
Filed Route
Departure Airport
Arrival Airport
Navaid (VOR, NDB)
Fix

Horizontal Profiles

Position Reports

Time Latitude Longitude Heading Altitude Ground
Speed
21-Feb-17 13:17 36.082933 -115.138771 226 2063ft 0kts
21-Feb-17 13:18 36.082933 -115.138771 226 2063ft 0kts
21-Feb-17 13:19 36.082933 -115.138771 226 2063ft 0kts
21-Feb-17 13:20 36.082933 -115.138771 226 2063ft 0kts
21-Feb-17 13:21 36.082933 -115.138771 226 2063ft 0kts
21-Feb-17 13:22 36.082933 -115.138771 226 2063ft 0kts
21-Feb-17 13:23 36.082933 -115.138771 226 2063ft 0kts
21-Feb-17 13:24 36.082933 -115.138771 226 2063ft 0kts
21-Feb-17 13:25 36.082933 -115.138771 226 2063ft 0kts
21-Feb-17 13:26 36.082933 -115.138771 226 2063ft 0kts
21-Feb-17 13:27 36.082933 -115.138771 226 2063ft 0kts
21-Feb-17 13:28 36.082933 -115.138771 226 2063ft 0kts
21-Feb-17 13:29 36.082933 -115.138771 226 2063ft 0kts
21-Feb-17 13:30 36.082933 -115.138771 226 2063ft 0kts
21-Feb-17 13:31 36.082933 -115.138771 226 2063ft 0kts
21-Feb-17 13:32 36.082933 -115.138771 226 2063ft 0kts
21-Feb-17 13:33 36.082933 -115.138771 226 2063ft 0kts
21-Feb-17 13:34 36.082933 -115.138771 226 2063ft 0kts
21-Feb-17 13:35 36.082933 -115.138771 226 2063ft 0kts
21-Feb-17 13:36 36.082933 -115.138771 226 2063ft 0kts
21-Feb-17 13:37 36.082933 -115.138771 226 2063ft 0kts
21-Feb-17 13:38 36.082933 -115.138771 226 2063ft 0kts
21-Feb-17 13:39 36.082933 -115.138771 226 2063ft 0kts
21-Feb-17 13:40 36.082933 -115.138771 226 2063ft 0kts
21-Feb-17 13:41 36.082933 -115.138771 226 2063ft 0kts
21-Feb-17 13:42 36.082933 -115.138771 226 2063ft 0kts
21-Feb-17 13:43 36.082933 -115.138771 226 2063ft 0kts
21-Feb-17 13:44 36.082933 -115.138771 226 2063ft 0kts
21-Feb-17 13:45 36.082933 -115.138771 226 2063ft 0kts
21-Feb-17 13:46 36.082933 -115.138771 226 2063ft 0kts
21-Feb-17 13:47 36.083252 -115.138533 183 2062ft 2kts
21-Feb-17 13:48 36.083923 -115.138505 181 2060ft 2kts
21-Feb-17 13:49 36.084266 -115.138338 271 2059ft 0kts
21-Feb-17 13:50 36.084266 -115.138338 270 2059ft 0kts
21-Feb-17 13:51 36.084235 -115.139102 266 2062ft 5kts
21-Feb-17 13:52 36.083578 -115.141297 225 2069ft 9kts
21-Feb-17 13:53 36.081238 -115.142493 180 2079ft 9kts
21-Feb-17 13:54 36.079377 -115.142468 181 2083ft 8kts
21-Feb-17 13:55 36.078440 -115.146076 274 2097ft 15kts
21-Feb-17 13:56 36.078804 -115.152360 264 2118ft 10kts
21-Feb-17 13:57 36.081431 -115.154917 334 2121ft 21kts
21-Feb-17 13:58 36.086484 -115.157847 338 2122ft 16kts
21-Feb-17 13:59 36.091655 -115.155303 25 2098ft 21kts
21-Feb-17 14:00 36.097265 -115.152064 25 2077ft 12kts
21-Feb-17 14:01 36.098234 -115.153741 207 2079ft 6kts
21-Feb-17 14:02 36.079557 -115.164336 202 2408ft 152kts
21-Feb-17 14:03 36.037397 -115.184228 209 4335ft 211kts
21-Feb-17 14:04 35.995856 -115.244765 239 6870ft 255kts
21-Feb-17 14:05 35.949796 -115.302727 191 7480ft 263kts
21-Feb-17 14:06 35.884396 -115.310595 191 10487ft 286kts
21-Feb-17 14:07 35.798753 -115.309146 183 13460ft 324kts
21-Feb-17 14:08 35.708068 -115.299509 186 16804ft 335kts
21-Feb-17 14:09 35.634789 -115.352191 228 18992ft 316kts
21-Feb-17 14:10 35.574874 -115.430801 230 21977ft 320kts
21-Feb-17 14:11 35.514131 -115.512161 230 23223ft 332kts
21-Feb-17 14:12 35.452680 -115.594460 230 25968ft 332kts
21-Feb-17 14:13 35.404852 -115.658397 230 27699ft 338kts
21-Feb-17 14:14 35.361354 -115.716431 230 28318ft 339kts
21-Feb-17 14:15 35.298952 -115.799522 230 28260ft 334kts
21-Feb-17 14:16 35.237447 -115.881229 230 28278ft 335kts
21-Feb-17 14:17 35.175295 -115.963591 230 28282ft 335kts
21-Feb-17 14:18 35.113496 -116.045288 230 28283ft 335kts
21-Feb-17 14:19 35.051159 -116.127497 230 28283ft 335kts
21-Feb-17 14:20 34.988978 -116.209306 231 28293ft 338kts
21-Feb-17 14:21 34.926729 -116.291005 231 28301ft 342kts
21-Feb-17 14:22 34.886280 -116.343986 231 28300ft 344kts
21-Feb-17 14:23 34.850287 -116.391054 231 28292ft 344kts
21-Feb-17 14:24 34.785378 -116.473205 225 28276ft 348kts
21-Feb-17 14:25 34.710565 -116.545293 224 27613ft 349kts
21-Feb-17 14:26 34.635626 -116.616544 223 26934ft 353kts
21-Feb-17 14:27 34.585117 -116.664130 223 26488ft 356kts
21-Feb-17 14:28 34.530649 -116.715693 223 26001ft 358kts
21-Feb-17 14:29 34.454523 -116.787726 223 25269ft 356kts
21-Feb-17 14:30 34.378934 -116.858272 222 24491ft 353kts
21-Feb-17 14:31 34.304194 -116.927831 222 22978ft 364kts
21-Feb-17 14:32 34.231992 -116.994773 222 21361ft 324kts
21-Feb-17 14:33 34.162651 -117.059039 222 19611ft 324kts
21-Feb-17 14:34 34.100829 -117.126635 241 18030ft 306kts
21-Feb-17 14:35 34.062642 -117.212993 242 16766ft 307kts
21-Feb-17 14:36 34.042687 -117.304442 261 15422ft 305kts
21-Feb-17 14:37 34.033671 -117.399823 261 13974ft 302kts
21-Feb-17 14:38 34.024968 -117.492281 261 12471ft 299kts
21-Feb-17 14:39 34.015988 -117.586908 263 11025ft 296kts
21-Feb-17 14:40 34.008260 -117.667727 263 10088ft 291kts
21-Feb-17 14:41 34.000318 -117.749830 263 9827ft 242kts
21-Feb-17 14:42 33.992830 -117.827203 264 8477ft 243kts
21-Feb-17 14:43 33.985164 -117.905422 265 7134ft 245kts
21-Feb-17 14:44 33.977460 -117.983353 265 6103ft 245kts
21-Feb-17 14:45 33.969951 -118.059252 266 5234ft 237kts
21-Feb-17 14:46 33.962595 -118.133211 265 4338ft 225kts
21-Feb-17 14:46 33.956966 -118.192396 264 3252ft 215kts
21-Feb-17 14:47 33.950533 -118.255329 264 2252ft 176kts
21-Feb-17 14:49 33.944571 -118.313097 263 1253ft 134kts
21-Feb-17 14:50 33.940092 -118.356286 263 559ft 133kts
21-Feb-17 14:51 33.935979 -118.396202 263 109ft 86kts
21-Feb-17 14:52 33.936167 -118.403411 288 119ft 0kts
21-Feb-17 14:52 33.936174 -118.403439 288 119ft 1kts
21-Feb-17 14:53 33.936012 -118.406697 262 125ft 14kts
21-Feb-17 14:54 33.937786 -118.409092 359 125ft 11kts
21-Feb-17 14:55 33.939032 -118.405525 83 122ft 18kts
21-Feb-17 14:56 33.940254 -118.400655 351 117ft 10kts
21-Feb-17 14:57 33.942011 -118.400255 84 116ft 1kts
21-Feb-17 14:58 33.942013 -118.400242 84 116ft 0kts
21-Feb-17 14:59 33.942013 -118.400242 84 116ft 0kts
21-Feb-17 15:00 33.942013 -118.400242 84 116ft 0kts

Navigation Log

Ident Type
Flight plan parsing failed, navigation log unavailable